sensor_id;sensor_type;location;lat;lon;timestamp;temperature;humidity
77727;SHT30;68312;53.502;10.030;2023-11-22T00:01:10;2.25;90.55
77727;SHT30;68312;53.502;10.030;2023-11-22T00:03:36;2.21;90.58
77727;SHT30;68312;53.502;10.030;2023-11-22T00:06:01;2.11;90.71
77727;SHT30;68312;53.502;10.030;2023-11-22T00:08:27;2.07;90.99
77727;SHT30;68312;53.502;10.030;2023-11-22T00:10:54;2.04;91.19
77727;SHT30;68312;53.502;10.030;2023-11-22T00:13:20;2.02;91.42
77727;SHT30;68312;53.502;10.030;2023-11-22T00:15:45;2.04;91.68
77727;SHT30;68312;53.502;10.030;2023-11-22T00:18:11;2.00;91.67
77727;SHT30;68312;53.502;10.030;2023-11-22T00:20:36;1.95;91.69
77727;SHT30;68312;53.502;10.030;2023-11-22T00:23:02;1.80;91.56
77727;SHT30;68312;53.502;10.030;2023-11-22T00:25:28;1.75;91.81
77727;SHT30;68312;53.502;10.030;2023-11-22T00:27:54;1.66;91.76
77727;SHT30;68312;53.502;10.030;2023-11-22T00:30:20;1.54;91.78
77727;SHT30;68312;53.502;10.030;2023-11-22T00:32:46;1.40;91.90
77727;SHT30;68312;53.502;10.030;2023-11-22T00:35:11;1.31;91.94
77727;SHT30;68312;53.502;10.030;2023-11-22T00:37:37;1.15;91.94
77727;SHT30;68312;53.502;10.030;2023-11-22T00:40:03;1.02;92.06
77727;SHT30;68312;53.502;10.030;2023-11-22T00:42:47;0.87;92.18
77727;SHT30;68312;53.502;10.030;2023-11-22T00:45:12;0.78;92.51
77727;SHT30;68312;53.502;10.030;2023-11-22T00:47:38;0.64;92.52
77727;SHT30;68312;53.502;10.030;2023-11-22T00:50:04;0.64;92.86
77727;SHT30;68312;53.502;10.030;2023-11-22T00:52:31;0.65;93.16
77727;SHT30;68312;53.502;10.030;2023-11-22T00:54:56;0.65;93.42
77727;SHT30;68312;53.502;10.030;2023-11-22T00:57:22;0.60;93.38
77727;SHT30;68312;53.502;10.030;2023-11-22T00:59:48;0.56;93.49
77727;SHT30;68312;53.502;10.030;2023-11-22T01:02:13;0.50;93.59
77727;SHT30;68312;53.502;10.030;2023-11-22T01:04:39;0.46;93.62
77727;SHT30;68312;53.502;10.030;2023-11-22T01:07:05;0.46;93.86
77727;SHT30;68312;53.502;10.030;2023-11-22T01:09:32;0.37;93.93
77727;SHT30;68312;53.502;10.030;2023-11-22T01:11:58;0.34;94.10
77727;SHT30;68312;53.502;10.030;2023-11-22T01:14:23;0.34;94.26
77727;SHT30;68312;53.502;10.030;2023-11-22T01:16:49;0.30;94.32
77727;SHT30;68312;53.502;10.030;2023-11-22T01:19:15;0.24;94.29
77727;SHT30;68312;53.502;10.030;2023-11-22T01:21:41;0.20;94.40
77727;SHT30;68312;53.502;10.030;2023-11-22T01:24:07;0.13;94.34
77727;SHT30;68312;53.502;10.030;2023-11-22T01:26:32;0.03;94.35
77727;SHT30;68312;53.502;10.030;2023-11-22T01:28:57;-0.04;94.39
77727;SHT30;68312;53.502;10.030;2023-11-22T01:31:24;-0.07;94.50
77727;SHT30;68312;53.502;10.030;2023-11-22T01:33:49;-0.09;94.61
77727;SHT30;68312;53.502;10.030;2023-11-22T01:36:15;-0.08;94.83
77727;SHT30;68312;53.502;10.030;2023-11-22T01:38:41;-0.14;94.95
77727;SHT30;68312;53.502;10.030;2023-11-22T01:41:06;-0.19;94.99
77727;SHT30;68312;53.502;10.030;2023-11-22T01:43:32;-0.26;95.01
77727;SHT30;68312;53.502;10.030;2023-11-22T01:45:58;-0.33;94.97
77727;SHT30;68312;53.502;10.030;2023-11-22T01:48:24;-0.36;94.98
77727;SHT30;68312;53.502;10.030;2023-11-22T01:50:51;-0.39;95.08
77727;SHT30;68312;53.502;10.030;2023-11-22T01:53:16;-0.37;95.21
77727;SHT30;68312;53.502;10.030;2023-11-22T01:55:44;-0.37;95.25
77727;SHT30;68312;53.502;10.030;2023-11-22T01:58:11;-0.35;95.33
77727;SHT30;68312;53.502;10.030;2023-11-22T02:00:48;-0.35;95.37
77727;SHT30;68312;53.502;10.030;2023-11-22T02:03:13;-0.28;95.47
77727;SHT30;68312;53.502;10.030;2023-11-22T02:05:41;-0.32;95.51
77727;SHT30;68312;53.502;10.030;2023-11-22T02:08:09;-0.39;95.40
77727;SHT30;68312;53.502;10.030;2023-11-22T02:10:35;-0.48;95.34
77727;SHT30;68312;53.502;10.030;2023-11-22T02:13:03;-0.49;95.34
77727;SHT30;68312;53.502;10.030;2023-11-22T02:15:31;-0.50;95.35
77727;SHT30;68312;53.502;10.030;2023-11-22T02:17:57;-0.53;95.41
77727;SHT30;68312;53.502;10.030;2023-11-22T02:20:22;-0.52;95.52
77727;SHT30;68312;53.502;10.030;2023-11-22T02:22:48;-0.56;95.53
77727;SHT30;68312;53.502;10.030;2023-11-22T02:25:14;-0.57;95.55
77727;SHT30;68312;53.502;10.030;2023-11-22T02:27:41;-0.59;95.54
77727;SHT30;68312;53.502;10.030;2023-11-22T02:30:08;-0.62;95.49
77727;SHT30;68312;53.502;10.030;2023-11-22T02:32:34;-0.59;95.60
77727;SHT30;68312;53.502;10.030;2023-11-22T02:34:59;-0.57;95.63
77727;SHT30;68312;53.502;10.030;2023-11-22T02:37:26;-0.65;95.64
77727;SHT30;68312;53.502;10.030;2023-11-22T02:40:04;-0.72;95.59
77727;SHT30;68312;53.502;10.030;2023-11-22T02:42:30;-0.77;95.60
77727;SHT30;68312;53.502;10.030;2023-11-22T02:44:55;-0.74;95.65
77727;SHT30;68312;53.502;10.030;2023-11-22T02:47:22;-0.81;95.62
77727;SHT30;68312;53.502;10.030;2023-11-22T02:49:47;-0.86;95.63
77727;SHT30;68312;53.502;10.030;2023-11-22T02:52:12;-0.88;95.68
77727;SHT30;68312;53.502;10.030;2023-11-22T02:54:44;-0.87;95.76
77727;SHT30;68312;53.502;10.030;2023-11-22T02:57:11;-0.88;95.83
77727;SHT30;68312;53.502;10.030;2023-11-22T02:59:40;-0.88;95.87
77727;SHT30;68312;53.502;10.030;2023-11-22T03:05:47;-0.86;95.98
77727;SHT30;68312;53.502;10.030;2023-11-22T03:08:12;-0.87;96.00
77727;SHT30;68312;53.502;10.030;2023-11-22T03:10:38;-0.87;96.02
77727;SHT30;68312;53.502;10.030;2023-11-22T03:13:04;-0.84;96.06
77727;SHT30;68312;53.502;10.030;2023-11-22T03:15:30;-0.88;96.06
77727;SHT30;68312;53.502;10.030;2023-11-22T03:17:55;-0.91;96.03
77727;SHT30;68312;53.502;10.030;2023-11-22T03:20:21;-0.95;96.04
77727;SHT30;68312;53.502;10.030;2023-11-22T03:22:46;-0.93;96.11
77727;SHT30;68312;53.502;10.030;2023-11-22T03:25:14;-0.94;96.07
77727;SHT30;68312;53.502;10.030;2023-11-22T03:27:39;-0.90;96.08
77727;SHT30;68312;53.502;10.030;2023-11-22T03:30:05;-0.87;96.14
77727;SHT30;68312;53.502;10.030;2023-11-22T03:32:39;-0.86;96.17
77727;SHT30;68312;53.502;10.030;2023-11-22T03:35:06;-0.84;96.20
77727;SHT30;68312;53.502;10.030;2023-11-22T03:37:33;-0.91;96.16
77727;SHT30;68312;53.502;10.030;2023-11-22T03:39:59;-0.98;96.10
77727;SHT30;68312;53.502;10.030;2023-11-22T03:42:24;-1.01;96.14
77727;SHT30;68312;53.502;10.030;2023-11-22T03:44:49;-1.03;96.21
77727;SHT30;68312;53.502;10.030;2023-11-22T03:47:15;-1.01;96.28
77727;SHT30;68312;53.502;10.030;2023-11-22T03:49:41;-1.04;96.28
77727;SHT30;68312;53.502;10.030;2023-11-22T03:52:09;-1.03;96.38
77727;SHT30;68312;53.502;10.030;2023-11-22T03:54:35;-1.03;96.44
77727;SHT30;68312;53.502;10.030;2023-11-22T03:57:00;-1.03;96.41
77727;SHT30;68312;53.502;10.030;2023-11-22T03:59:26;-1.05;96.45
77727;SHT30;68312;53.502;10.030;2023-11-22T04:01:51;-1.05;96.46
77727;SHT30;68312;53.502;10.030;2023-11-22T04:04:17;-1.11;96.45
77727;SHT30;68312;53.502;10.030;2023-11-22T04:06:43;-1.11;96.45
77727;SHT30;68312;53.502;10.030;2023-11-22T04:09:08;-1.09;96.50
77727;SHT30;68312;53.502;10.030;2023-11-22T04:11:37;-1.14;96.41
77727;SHT30;68312;53.502;10.030;2023-11-22T04:14:03;-1.15;96.47
77727;SHT30;68312;53.502;10.030;2023-11-22T04:16:28;-1.19;96.43
77727;SHT30;68312;53.502;10.030;2023-11-22T04:18:54;-1.19;96.39
77727;SHT30;68312;53.502;10.030;2023-11-22T04:21:19;-1.25;96.43
77727;SHT30;68312;53.502;10.030;2023-11-22T04:23:45;-1.27;96.44
77727;SHT30;68312;53.502;10.030;2023-11-22T04:26:11;-1.30;96.44
77727;SHT30;68312;53.502;10.030;2023-11-22T04:28:36;-1.31;96.51
77727;SHT30;68312;53.502;10.030;2023-11-22T04:31:02;-1.28;96.55
77727;SHT30;68312;53.502;10.030;2023-11-22T04:33:27;-1.25;96.62
77727;SHT30;68312;53.502;10.030;2023-11-22T04:35:54;-1.30;96.60
77727;SHT30;68312;53.502;10.030;2023-11-22T04:38:19;-1.30;96.57
77727;SHT30;68312;53.502;10.030;2023-11-22T04:40:45;-1.30;96.62
77727;SHT30;68312;53.502;10.030;2023-11-22T04:43:11;-1.30;96.65
77727;SHT30;68312;53.502;10.030;2023-11-22T04:45:36;-1.31;96.67
77727;SHT30;68312;53.502;10.030;2023-11-22T04:48:04;-1.25;96.74
77727;SHT30;68312;53.502;10.030;2023-11-22T04:50:29;-1.24;96.73
77727;SHT30;68312;53.502;10.030;2023-11-22T04:52:55;-1.25;96.71
77727;SHT30;68312;53.502;10.030;2023-11-22T04:55:20;-1.21;96.69
77727;SHT30;68312;53.502;10.030;2023-11-22T04:57:48;-1.27;96.72
77727;SHT30;68312;53.502;10.030;2023-11-22T05:00:14;-1.38;96.64
77727;SHT30;68312;53.502;10.030;2023-11-22T05:02:39;-1.45;96.59
77727;SHT30;68312;53.502;10.030;2023-11-22T05:05:09;-1.46;96.65
77727;SHT30;68312;53.502;10.030;2023-11-22T05:07:38;-1.44;96.66
77727;SHT30;68312;53.502;10.030;2023-11-22T05:10:05;-1.42;96.70
77727;SHT30;68312;53.502;10.030;2023-11-22T05:12:31;-1.48;96.65
77727;SHT30;68312;53.502;10.030;2023-11-22T05:14:57;-1.48;96.66
77727;SHT30;68312;53.502;10.030;2023-11-22T05:17:22;-1.41;96.76
77727;SHT30;68312;53.502;10.030;2023-11-22T05:19:49;-1.44;96.67
77727;SHT30;68312;53.502;10.030;2023-11-22T05:22:14;-1.49;96.66
77727;SHT30;68312;53.502;10.030;2023-11-22T05:24:40;-1.48;96.64
77727;SHT30;68312;53.502;10.030;2023-11-22T05:27:09;-1.46;96.59
77727;SHT30;68312;53.502;10.030;2023-11-22T05:29:35;-1.46;96.63
77727;SHT30;68312;53.502;10.030;2023-11-22T05:32:02;-1.46;96.67
77727;SHT30;68312;53.502;10.030;2023-11-22T05:34:31;-1.49;96.64
77727;SHT30;68312;53.502;10.030;2023-11-22T05:36:57;-1.48;96.62
77727;SHT30;68312;53.502;10.030;2023-11-22T05:39:22;-1.46;96.66
77727;SHT30;68312;53.502;10.030;2023-11-22T05:41:48;-1.44;96.72
77727;SHT30;68312;53.502;10.030;2023-11-22T05:44:14;-1.49;96.72
77727;SHT30;68312;53.502;10.030;2023-11-22T05:46:40;-1.55;96.70
77727;SHT30;68312;53.502;10.030;2023-11-22T05:49:06;-1.60;96.67
77727;SHT30;68312;53.502;10.030;2023-11-22T05:51:32;-1.60;96.66
77727;SHT30;68312;53.502;10.030;2023-11-22T05:53:59;-1.60;96.73
77727;SHT30;68312;53.502;10.030;2023-11-22T05:56:25;-1.63;96.73
77727;SHT30;68312;53.502;10.030;2023-11-22T05:58:50;-1.62;96.75
77727;SHT30;68312;53.502;10.030;2023-11-22T06:01:16;-1.63;96.76
77727;SHT30;68312;53.502;10.030;2023-11-22T06:03:42;-1.58;96.83
77727;SHT30;68312;53.502;10.030;2023-11-22T06:06:07;-1.58;96.87
77727;SHT30;68312;53.502;10.030;2023-11-22T06:08:33;-1.54;96.89
77727;SHT30;68312;53.502;10.030;2023-11-22T06:10:58;-1.51;96.92
77727;SHT30;68312;53.502;10.030;2023-11-22T06:13:26;-1.48;96.97
77727;SHT30;68312;53.502;10.030;2023-11-22T06:15:52;-1.48;96.91
77727;SHT30;68312;53.502;10.030;2023-11-22T06:18:18;-1.56;96.86
77727;SHT30;68312;53.502;10.030;2023-11-22T06:20:44;-1.62;96.87
77727;SHT30;68312;53.502;10.030;2023-11-22T06:23:10;-1.58;96.86
77727;SHT30;68312;53.502;10.030;2023-11-22T06:25:36;-1.54;96.95
77727;SHT30;68312;53.502;10.030;2023-11-22T06:28:02;-1.51;96.95
77727;SHT30;68312;53.502;10.030;2023-11-22T06:30:28;-1.49;96.98
77727;SHT30;68312;53.502;10.030;2023-11-22T06:32:55;-1.44;97.01
77727;SHT30;68312;53.502;10.030;2023-11-22T06:35:21;-1.46;97.02
77727;SHT30;68312;53.502;10.030;2023-11-22T06:37:46;-1.36;97.07
77727;SHT30;68312;53.502;10.030;2023-11-22T06:40:12;-1.31;97.09
77727;SHT30;68312;53.502;10.030;2023-11-22T06:42:39;-1.34;97.05
77727;SHT30;68312;53.502;10.030;2023-11-22T06:45:06;-1.32;97.07
77727;SHT30;68312;53.502;10.030;2023-11-22T06:47:35;-1.35;97.09
77727;SHT30;68312;53.502;10.030;2023-11-22T06:50:02;-1.36;97.07
77727;SHT30;68312;53.502;10.030;2023-11-22T06:52:29;-1.34;97.08
77727;SHT30;68312;53.502;10.030;2023-11-22T06:54:54;-1.27;97.15
77727;SHT30;68312;53.502;10.030;2023-11-22T06:57:20;-1.19;97.16
77727;SHT30;68312;53.502;10.030;2023-11-22T06:59:53;-1.17;97.20
77727;SHT30;68312;53.502;10.030;2023-11-22T07:02:18;-1.12;97.26
77727;SHT30;68312;53.502;10.030;2023-11-22T07:04:44;-1.04;97.24
77727;SHT30;68312;53.502;10.030;2023-11-22T07:07:10;-1.01;97.27
77727;SHT30;68312;53.502;10.030;2023-11-22T07:09:36;-0.98;97.29
77727;SHT30;68312;53.502;10.030;2023-11-22T07:12:01;-0.94;97.29
77727;SHT30;68312;53.502;10.030;2023-11-22T07:14:27;-0.93;97.31
77727;SHT30;68312;53.502;10.030;2023-11-22T07:16:54;-0.88;97.31
77727;SHT30;68312;53.502;10.030;2023-11-22T07:19:22;-0.87;97.29
77727;SHT30;68312;53.502;10.030;2023-11-22T07:21:48;-0.80;97.32
77727;SHT30;68312;53.502;10.030;2023-11-22T07:24:13;-0.77;97.39
77727;SHT30;68312;53.502;10.030;2023-11-22T07:26:41;-0.72;97.35
77727;SHT30;68312;53.502;10.030;2023-11-22T07:29:07;-0.67;97.41
77727;SHT30;68312;53.502;10.030;2023-11-22T07:31:33;-0.65;97.39
77727;SHT30;68312;53.502;10.030;2023-11-22T07:33:59;-0.65;97.35
77727;SHT30;68312;53.502;10.030;2023-11-22T07:36:27;-0.57;97.35
77727;SHT30;68312;53.502;10.030;2023-11-22T07:38:53;-0.50;97.45
77727;SHT30;68312;53.502;10.030;2023-11-22T07:41:18;-0.43;97.43
77727;SHT30;68312;53.502;10.030;2023-11-22T07:43:44;-0.42;97.46
77727;SHT30;68312;53.502;10.030;2023-11-22T07:46:09;-0.37;97.45
77727;SHT30;68312;53.502;10.030;2023-11-22T07:48:39;-0.32;97.44
77727;SHT30;68312;53.502;10.030;2023-11-22T07:51:06;-0.25;97.48
77727;SHT30;68312;53.502;10.030;2023-11-22T07:53:32;-0.16;97.45
77727;SHT30;68312;53.502;10.030;2023-11-22T07:56:00;-0.07;97.48
77727;SHT30;68312;53.502;10.030;2023-11-22T07:58:33;-0.02;97.46
77727;SHT30;68312;53.502;10.030;2023-11-22T08:00:59;0.01;97.42
77727;SHT30;68312;53.502;10.030;2023-11-22T08:03:25;0.10;97.47
77727;SHT30;68312;53.502;10.030;2023-11-22T08:05:52;0.14;97.39
77727;SHT30;68312;53.502;10.030;2023-11-22T08:08:21;0.17;97.39
77727;SHT30;68312;53.502;10.030;2023-11-22T08:10:47;0.19;97.39
77727;SHT30;68312;53.502;10.030;2023-11-22T08:13:14;0.24;97.39
77727;SHT30;68312;53.502;10.030;2023-11-22T08:15:41;0.32;97.40
77727;SHT30;68312;53.502;10.030;2023-11-22T08:18:06;0.36;97.38
77727;SHT30;68312;53.502;10.030;2023-11-22T08:20:31;0.43;97.38
77727;SHT30;68312;53.502;10.030;2023-11-22T08:26:38;0.60;97.39
77727;SHT30;68312;53.502;10.030;2023-11-22T08:29:04;0.64;97.38
77727;SHT30;68312;53.502;10.030;2023-11-22T08:31:30;0.75;97.44
77727;SHT30;68312;53.502;10.030;2023-11-22T08:33:56;0.74;97.37
77727;SHT30;68312;53.502;10.030;2023-11-22T08:36:22;0.77;97.36
77727;SHT30;68312;53.502;10.030;2023-11-22T08:38:48;0.77;97.34
77727;SHT30;68312;53.502;10.030;2023-11-22T08:41:14;0.85;97.24
77727;SHT30;68312;53.502;10.030;2023-11-22T08:43:40;0.84;97.12
77727;SHT30;68312;53.502;10.030;2023-11-22T08:46:06;0.98;97.09
77727;SHT30;68312;53.502;10.030;2023-11-22T08:48:34;1.06;97.05
77727;SHT30;68312;53.502;10.030;2023-11-22T08:54:28;1.18;97.08
77727;SHT30;68312;53.502;10.030;2023-11-22T08:56:55;1.25;97.08
77727;SHT30;68312;53.502;10.030;2023-11-22T08:59:23;1.28;97.11
77727;SHT30;68312;53.502;10.030;2023-11-22T09:01:49;1.32;97.16
77727;SHT30;68312;53.502;10.030;2023-11-22T09:04:14;1.36;97.18
77727;SHT30;68312;53.502;10.030;2023-11-22T09:06:40;1.44;97.18
77727;SHT30;68312;53.502;10.030;2023-11-22T09:09:06;1.50;97.07
77727;SHT30;68312;53.502;10.030;2023-11-22T09:11:31;1.54;97.10
77727;SHT30;68312;53.502;10.030;2023-11-22T09:13:59;1.60;97.03
77727;SHT30;68312;53.502;10.030;2023-11-22T09:16:26;1.64;97.04
77727;SHT30;68312;53.502;10.030;2023-11-22T09:18:52;1.67;96.89
77727;SHT30;68312;53.502;10.030;2023-11-22T09:21:19;1.71;96.93
77727;SHT30;68312;53.502;10.030;2023-11-22T09:23:46;1.75;96.86
77727;SHT30;68312;53.502;10.030;2023-11-22T09:26:13;1.84;96.89
77727;SHT30;68312;53.502;10.030;2023-11-22T09:28:40;1.91;96.84
77727;SHT30;68312;53.502;10.030;2023-11-22T09:31:08;1.97;96.73
77727;SHT30;68312;53.502;10.030;2023-11-22T09:33:34;2.02;96.56
77727;SHT30;68312;53.502;10.030;2023-11-22T09:35:59;2.04;96.34
77727;SHT30;68312;53.502;10.030;2023-11-22T09:38:25;2.15;96.20
77727;SHT30;68312;53.502;10.030;2023-11-22T09:40:50;2.17;95.84
77727;SHT30;68312;53.502;10.030;2023-11-22T09:43:19;2.22;95.60
77727;SHT30;68312;53.502;10.030;2023-11-22T09:45:47;2.21;95.37
77727;SHT30;68312;53.502;10.030;2023-11-22T09:51:01;2.46;95.57
77727;SHT30;68312;53.502;10.030;2023-11-22T09:56:07;2.62;95.57
77727;SHT30;68312;53.502;10.030;2023-11-22T09:58:39;2.72;95.66
77727;SHT30;68312;53.502;10.030;2023-11-22T10:01:05;2.76;95.42
77727;SHT30;68312;53.502;10.030;2023-11-22T10:03:31;2.76;94.97
77727;SHT30;68312;53.502;10.030;2023-11-22T10:05:57;2.76;95.01
77727;SHT30;68312;53.502;10.030;2023-11-22T10:08:26;2.75;94.78
77727;SHT30;68312;53.502;10.030;2023-11-22T10:10:55;2.83;94.46
77727;SHT30;68312;53.502;10.030;2023-11-22T10:13:21;2.90;94.31
77727;SHT30;68312;53.502;10.030;2023-11-22T10:15:51;2.93;93.14
77727;SHT30;68312;53.502;10.030;2023-11-22T10:18:19;2.96;92.84
77727;SHT30;68312;53.502;10.030;2023-11-22T10:20:47;2.84;91.61
77727;SHT30;68312;53.502;10.030;2023-11-22T10:23:14;2.94;91.99
77727;SHT30;68312;53.502;10.030;2023-11-22T10:25:48;3.01;91.99
77727;SHT30;68312;53.502;10.030;2023-11-22T10:28:26;3.12;91.32
77727;SHT30;68312;53.502;10.030;2023-11-22T10:30:54;3.24;91.22
77727;SHT30;68312;53.502;10.030;2023-11-22T10:33:20;3.28;90.68
77727;SHT30;68312;53.502;10.030;2023-11-22T10:35:50;3.32;89.98
77727;SHT30;68312;53.502;10.030;2023-11-22T10:38:17;3.36;89.73
77727;SHT30;68312;53.502;10.030;2023-11-22T10:40:44;3.51;89.97
77727;SHT30;68312;53.502;10.030;2023-11-22T10:43:17;3.66;89.40
77727;SHT30;68312;53.502;10.030;2023-11-22T10:45:44;3.75;88.95
77727;SHT30;68312;53.502;10.030;2023-11-22T10:48:15;3.80;88.51
77727;SHT30;68312;53.502;10.030;2023-11-22T10:50:42;3.78;88.21
77727;SHT30;68312;53.502;10.030;2023-11-22T10:53:12;3.80;87.55
77727;SHT30;68312;53.502;10.030;2023-11-22T10:55:48;3.73;87.28
77727;SHT30;68312;53.502;10.030;2023-11-22T10:58:15;3.79;87.07
77727;SHT30;68312;53.502;10.030;2023-11-22T11:00:42;3.82;87.11
77727;SHT30;68312;53.502;10.030;2023-11-22T11:03:14;3.86;86.94
77727;SHT30;68312;53.502;10.030;2023-11-22T11:06:35;4.00;87.11
77727;SHT30;68312;53.502;10.030;2023-11-22T11:09:04;3.97;86.23
77727;SHT30;68312;53.502;10.030;2023-11-22T11:11:37;3.89;85.83
77727;SHT30;68312;53.502;10.030;2023-11-22T11:14:05;3.87;86.25
77727;SHT30;68312;53.502;10.030;2023-11-22T11:16:38;3.87;86.54
77727;SHT30;68312;53.502;10.030;2023-11-22T11:19:04;3.90;85.77
77727;SHT30;68312;53.502;10.030;2023-11-22T11:21:33;4.01;86.52
77727;SHT30;68312;53.502;10.030;2023-11-22T11:23:58;4.01;85.81
77727;SHT30;68312;53.502;10.030;2023-11-22T11:26:28;4.07;85.54
77727;SHT30;68312;53.502;10.030;2023-11-22T11:28:56;4.16;85.82
77727;SHT30;68312;53.502;10.030;2023-11-22T11:31:22;4.24;84.19
77727;SHT30;68312;53.502;10.030;2023-11-22T11:36:22;4.38;84.05
77727;SHT30;68312;53.502;10.030;2023-11-22T11:38:49;4.49;83.07
77727;SHT30;68312;53.502;10.030;2023-11-22T11:41:17;4.62;81.73
77727;SHT30;68312;53.502;10.030;2023-11-22T11:43:48;4.57;80.98
77727;SHT30;68312;53.502;10.030;2023-11-22T11:47:10;4.57;80.85
77727;SHT30;68312;53.502;10.030;2023-11-22T11:49:39;4.58;80.17
77727;SHT30;68312;53.502;10.030;2023-11-22T11:52:05;4.68;80.73
77727;SHT30;68312;53.502;10.030;2023-11-22T11:54:30;4.85;80.25
77727;SHT30;68312;53.502;10.030;2023-11-22T11:56:59;5.05;77.23
77727;SHT30;68312;53.502;10.030;2023-11-22T11:59:26;5.15;75.25
77727;SHT30;68312;53.502;10.030;2023-11-22T12:01:55;5.24;75.74
77727;SHT30;68312;53.502;10.030;2023-11-22T12:04:23;5.06;74.40
77727;SHT30;68312;53.502;10.030;2023-11-22T12:06:49;4.85;72.85
77727;SHT30;68312;53.502;10.030;2023-11-22T12:09:25;4.72;75.06
77727;SHT30;68312;53.502;10.030;2023-11-22T12:11:52;4.58;74.52
77727;SHT30;68312;53.502;10.030;2023-11-22T12:14:21;4.47;75.70
77727;SHT30;68312;53.502;10.030;2023-11-22T12:16:51;4.37;75.06
77727;SHT30;68312;53.502;10.030;2023-11-22T12:19:28;4.25;72.90
77727;SHT30;68312;53.502;10.030;2023-11-22T12:21:56;4.16;74.59
77727;SHT30;68312;53.502;10.030;2023-11-22T12:24:24;4.06;74.30
77727;SHT30;68312;53.502;10.030;2023-11-22T12:26:50;3.97;72.69
77727;SHT30;68312;53.502;10.030;2023-11-22T12:29:17;3.93;73.60
77727;SHT30;68312;53.502;10.030;2023-11-22T12:31:50;3.87;73.68
77727;SHT30;68312;53.502;10.030;2023-11-22T12:34:17;3.90;74.92
77727;SHT30;68312;53.502;10.030;2023-11-22T12:36:46;3.85;74.21
77727;SHT30;68312;53.502;10.030;2023-11-22T12:39:13;3.82;73.96
77727;SHT30;68312;53.502;10.030;2023-11-22T12:41:47;3.85;73.57
77727;SHT30;68312;53.502;10.030;2023-11-22T12:44:12;3.89;74.60
77727;SHT30;68312;53.502;10.030;2023-11-22T12:46:52;3.83;72.94
77727;SHT30;68312;53.502;10.030;2023-11-22T12:49:25;3.87;74.68
77727;SHT30;68312;53.502;10.030;2023-11-22T12:51:54;3.90;76.11
77727;SHT30;68312;53.502;10.030;2023-11-22T12:54:20;3.86;73.33
77727;SHT30;68312;53.502;10.030;2023-11-22T12:56:52;3.86;73.59
77727;SHT30;68312;53.502;10.030;2023-11-22T12:59:24;3.83;73.28
77727;SHT30;68312;53.502;10.030;2023-11-22T13:01:50;3.87;74.70
77727;SHT30;68312;53.502;10.030;2023-11-22T13:04:17;3.86;74.87
77727;SHT30;68312;53.502;10.030;2023-11-22T13:10:24;3.89;73.76
77727;SHT30;68312;53.502;10.030;2023-11-22T13:12:54;3.90;75.37
77727;SHT30;68312;53.502;10.030;2023-11-22T13:15:21;3.91;74.21
77727;SHT30;68312;53.502;10.030;2023-11-22T13:17:52;3.91;69.55
77727;SHT30;68312;53.502;10.030;2023-11-22T13:20:24;3.89;60.54
77727;SHT30;68312;53.502;10.030;2023-11-22T13:22:54;3.89;61.87
77727;SHT30;68312;53.502;10.030;2023-11-22T13:25:22;3.99;58.24
77727;SHT30;68312;53.502;10.030;2023-11-22T13:27:50;3.87;59.70
77727;SHT30;68312;53.502;10.030;2023-11-22T13:30:17;3.86;60.13
77727;SHT30;68312;53.502;10.030;2023-11-22T13:32:45;3.78;61.24
77727;SHT30;68312;53.502;10.030;2023-11-22T13:35:11;3.73;63.01
77727;SHT30;68312;53.502;10.030;2023-11-22T13:37:47;3.76;60.79
77727;SHT30;68312;53.502;10.030;2023-11-22T13:40:16;3.68;61.74
77727;SHT30;68312;53.502;10.030;2023-11-22T13:42:47;3.69;61.76
77727;SHT30;68312;53.502;10.030;2023-11-22T13:45:14;3.62;62.62
77727;SHT30;68312;53.502;10.030;2023-11-22T13:47:44;3.66;61.78
77727;SHT30;68312;53.502;10.030;2023-11-22T13:50:12;3.68;61.31
77727;SHT30;68312;53.502;10.030;2023-11-22T13:52:40;3.68;66.05
77727;SHT30;68312;53.502;10.030;2023-11-22T13:55:05;3.62;62.38
77727;SHT30;68312;53.502;10.030;2023-11-22T13:57:36;3.59;65.97
77727;SHT30;68312;53.502;10.030;2023-11-22T14:00:06;3.54;65.23
77727;SHT30;68312;53.502;10.030;2023-11-22T14:02:35;3.52;66.29
77727;SHT30;68312;53.502;10.030;2023-11-22T14:05:01;3.51;64.78
77727;SHT30;68312;53.502;10.030;2023-11-22T14:07:28;3.45;65.45
77727;SHT30;68312;53.502;10.030;2023-11-22T14:09:54;3.45;65.60
77727;SHT30;68312;53.502;10.030;2023-11-22T14:12:20;3.46;64.81
77727;SHT30;68312;53.502;10.030;2023-11-22T14:14:54;3.43;66.08
77727;SHT30;68312;53.502;10.030;2023-11-22T14:17:19;3.41;65.96
77727;SHT30;68312;53.502;10.030;2023-11-22T14:19:46;3.38;67.60
77727;SHT30;68312;53.502;10.030;2023-11-22T14:22:12;3.38;66.65
77727;SHT30;68312;53.502;10.030;2023-11-22T14:24:40;3.36;67.19
77727;SHT30;68312;53.502;10.030;2023-11-22T14:27:05;3.29;66.62
77727;SHT30;68312;53.502;10.030;2023-11-22T14:29:31;3.27;67.57
77727;SHT30;68312;53.502;10.030;2023-11-22T14:31:58;3.24;68.89
77727;SHT30;68312;53.502;10.030;2023-11-22T14:34:24;3.24;67.60
77727;SHT30;68312;53.502;10.030;2023-11-22T14:36:49;3.21;65.58
77727;SHT30;68312;53.502;10.030;2023-11-22T14:39:14;3.21;70.50
77727;SHT30;68312;53.502;10.030;2023-11-22T14:41:41;3.20;70.35
77727;SHT30;68312;53.502;10.030;2023-11-22T14:44:06;3.11;72.02
77727;SHT30;68312;53.502;10.030;2023-11-22T14:46:32;3.07;73.35
77727;SHT30;68312;53.502;10.030;2023-11-22T14:48:58;3.01;72.34
77727;SHT30;68312;53.502;10.030;2023-11-22T14:51:23;3.04;73.70
77727;SHT30;68312;53.502;10.030;2023-11-22T14:53:49;3.00;73.39
77727;SHT30;68312;53.502;10.030;2023-11-22T14:56:15;2.97;73.89
77727;SHT30;68312;53.502;10.030;2023-11-22T14:58:40;2.91;74.81
77727;SHT30;68312;53.502;10.030;2023-11-22T15:01:06;2.90;75.37
77727;SHT30;68312;53.502;10.030;2023-11-22T15:03:34;2.90;75.98
77727;SHT30;68312;53.502;10.030;2023-11-22T15:06:01;2.84;75.16
77727;SHT30;68312;53.502;10.030;2023-11-22T15:08:26;2.86;75.25
77727;SHT30;68312;53.502;10.030;2023-11-22T15:10:55;2.84;75.16
77727;SHT30;68312;53.502;10.030;2023-11-22T15:13:21;2.84;77.08
77727;SHT30;68312;53.502;10.030;2023-11-22T15:15:46;2.83;76.82
77727;SHT30;68312;53.502;10.030;2023-11-22T15:18:12;2.79;75.84
77727;SHT30;68312;53.502;10.030;2023-11-22T15:20:37;2.76;76.60
77727;SHT30;68312;53.502;10.030;2023-11-22T15:23:09;2.72;76.77
77727;SHT30;68312;53.502;10.030;2023-11-22T15:25:35;2.69;77.31
77727;SHT30;68312;53.502;10.030;2023-11-22T15:28:00;2.69;76.58
77727;SHT30;68312;53.502;10.030;2023-11-22T15:30:26;2.67;76.50
77727;SHT30;68312;53.502;10.030;2023-11-22T15:32:51;2.67;76.19
77727;SHT30;68312;53.502;10.030;2023-11-22T15:35:18;2.69;76.51
77727;SHT30;68312;53.502;10.030;2023-11-22T15:37:44;2.69;75.78
77727;SHT30;68312;53.502;10.030;2023-11-22T15:40:10;2.75;76.26
77727;SHT30;68312;53.502;10.030;2023-11-22T15:42:36;2.64;76.60
77727;SHT30;68312;53.502;10.030;2023-11-22T15:45:02;2.60;76.88
77727;SHT30;68312;53.502;10.030;2023-11-22T15:47:28;2.62;76.48